KDNL Airport (Daniel Field) Information

FAA: DNL - ICAO: KDNL

KDNL Airport Location

State Georgia
County Richmond
City Augusta
KDNL Airport is 1 miles west of Augusta, GA.
Latitude 33-27-59.7000N
Longitude 082-02-21.8000W
Elevation 422ft

KDNL Airport METARs

METAR KDNL 180753Z AUTO 33004KT 10SM CLR 12/06 A3016 RMK AO2 SLP212 T01170061
Altimeter 30.16"
Temperature 11.7°C (53.1°F)
Wind 330° at 4KT
Clouds Skies are clear.
Visibility 10.0mi
Time observed: 2021-10-18T07:53:00Z

KDNL Airport Details

Status Operational
Activation April 1940
Ownership Public
Usage Public
Chart ATLANTA
ATC on-site No
Beacon schedule sunset-sunrise
Beacon color clear green

KDNL Airport Contacts

Owner AUGUSTA-RICHMOND CO
Owner address 535 TELFAIR STREET, AUGUSTA, GA 30901
Owner phone (706) 821-2300
Manager RONALD ANDERSON
Manager address P.O. BOX 198, FT MEADE, SD 57741
Manager phone (404) 401-8189

KDNL Airport (Daniel Field) Radio Frequencies

KDNL (Airport) Radio Frequencies

UNICOM 123.05
Common traffic advisory frequency (CTAF) 123.05